sensor_id;sensor_type;location;lat;lon;timestamp;temperature;humidity
837;DHT22;400;53.550;9.932;2022-08-19T00:01:59;20.90;99.90
837;DHT22;400;53.550;9.932;2022-08-19T00:04:29;21.00;99.90
837;DHT22;400;53.550;9.932;2022-08-19T00:06:57;20.80;99.90
837;DHT22;400;53.550;9.932;2022-08-19T00:09:26;20.90;99.90
837;DHT22;400;53.550;9.932;2022-08-19T00:11:56;20.90;99.90
837;DHT22;400;53.550;9.932;2022-08-19T00:14:24;20.80;99.90
837;DHT22;400;53.550;9.932;2022-08-19T00:16:54;21.00;99.90
837;DHT22;400;53.550;9.932;2022-08-19T00:19:21;20.90;99.90
837;DHT22;400;53.550;9.932;2022-08-19T00:21:48;20.90;99.90
837;DHT22;400;53.550;9.932;2022-08-19T00:24:15;20.90;99.90
837;DHT22;400;53.550;9.932;2022-08-19T00:26:43;20.90;99.90
837;DHT22;400;53.550;9.932;2022-08-19T00:29:13;20.90;99.90
837;DHT22;400;53.550;9.932;2022-08-19T00:31:41;20.90;99.90
837;DHT22;400;53.550;9.932;2022-08-19T00:34:10;20.90;99.90
837;DHT22;400;53.550;9.932;2022-08-19T00:36:37;20.70;99.90
837;DHT22;400;53.550;9.932;2022-08-19T00:39:05;20.60;99.90
837;DHT22;400;53.550;9.932;2022-08-19T00:41:32;20.70;99.90
837;DHT22;400;53.550;9.932;2022-08-19T00:44:01;20.70;99.90
837;DHT22;400;53.550;9.932;2022-08-19T00:46:28;20.70;99.90
837;DHT22;400;53.550;9.932;2022-08-19T00:48:59;20.80;99.90
837;DHT22;400;53.550;9.932;2022-08-19T00:51:29;20.80;99.90
837;DHT22;400;53.550;9.932;2022-08-19T00:53:58;20.70;99.90
837;DHT22;400;53.550;9.932;2022-08-19T00:56:26;20.50;99.90
837;DHT22;400;53.550;9.932;2022-08-19T00:58:55;20.50;99.90
837;DHT22;400;53.550;9.932;2022-08-19T01:01:22;20.50;99.90
837;DHT22;400;53.550;9.932;2022-08-19T01:03:49;20.70;99.90
837;DHT22;400;53.550;9.932;2022-08-19T01:06:16;20.50;99.90
837;DHT22;400;53.550;9.932;2022-08-19T01:08:44;20.50;99.90
837;DHT22;400;53.550;9.932;2022-08-19T01:11:12;20.60;99.90
837;DHT22;400;53.550;9.932;2022-08-19T01:13:38;20.50;99.90
837;DHT22;400;53.550;9.932;2022-08-19T01:16:08;20.60;99.90
837;DHT22;400;53.550;9.932;2022-08-19T01:18:36;20.50;99.90
837;DHT22;400;53.550;9.932;2022-08-19T01:21:08;20.60;99.90
837;DHT22;400;53.550;9.932;2022-08-19T01:23:37;20.60;99.90
837;DHT22;400;53.550;9.932;2022-08-19T01:26:12;20.60;99.90
837;DHT22;400;53.550;9.932;2022-08-19T01:28:46;20.60;99.90
837;DHT22;400;53.550;9.932;2022-08-19T01:31:16;20.50;99.90
837;DHT22;400;53.550;9.932;2022-08-19T01:33:44;20.40;99.90
837;DHT22;400;53.550;9.932;2022-08-19T01:36:26;20.50;99.90
837;DHT22;400;53.550;9.932;2022-08-19T01:38:55;20.60;99.90
837;DHT22;400;53.550;9.932;2022-08-19T01:41:23;20.50;99.90
837;DHT22;400;53.550;9.932;2022-08-19T01:43:51;20.60;99.90
837;DHT22;400;53.550;9.932;2022-08-19T01:46:19;20.40;99.90
837;DHT22;400;53.550;9.932;2022-08-19T01:48:46;20.40;99.90
837;DHT22;400;53.550;9.932;2022-08-19T01:51:15;20.50;99.90
837;DHT22;400;53.550;9.932;2022-08-19T01:53:43;20.60;99.90
837;DHT22;400;53.550;9.932;2022-08-19T01:56:14;20.60;99.90
837;DHT22;400;53.550;9.932;2022-08-19T01:58:52;20.50;99.90
837;DHT22;400;53.550;9.932;2022-08-19T02:01:20;20.40;99.90
837;DHT22;400;53.550;9.932;2022-08-19T02:03:50;20.50;99.90
837;DHT22;400;53.550;9.932;2022-08-19T02:06:17;20.40;99.90
837;DHT22;400;53.550;9.932;2022-08-19T02:08:44;20.40;99.90
837;DHT22;400;53.550;9.932;2022-08-19T02:11:21;20.30;99.90
837;DHT22;400;53.550;9.932;2022-08-19T02:13:49;20.30;99.90
837;DHT22;400;53.550;9.932;2022-08-19T02:16:17;20.10;99.90
837;DHT22;400;53.550;9.932;2022-08-19T02:18:45;20.10;99.90
837;DHT22;400;53.550;9.932;2022-08-19T02:21:14;20.10;99.90
837;DHT22;400;53.550;9.932;2022-08-19T02:23:41;20.10;99.90
837;DHT22;400;53.550;9.932;2022-08-19T02:26:08;20.10;99.90
837;DHT22;400;53.550;9.932;2022-08-19T02:28:36;20.20;99.90
837;DHT22;400;53.550;9.932;2022-08-19T02:31:09;20.20;99.90
837;DHT22;400;53.550;9.932;2022-08-19T02:33:36;20.30;99.90
837;DHT22;400;53.550;9.932;2022-08-19T02:36:04;20.30;99.90
837;DHT22;400;53.550;9.932;2022-08-19T02:38:31;20.20;99.90
837;DHT22;400;53.550;9.932;2022-08-19T02:41:01;20.10;99.90
837;DHT22;400;53.550;9.932;2022-08-19T02:43:30;20.20;99.90
837;DHT22;400;53.550;9.932;2022-08-19T02:45:58;20.20;99.90
837;DHT22;400;53.550;9.932;2022-08-19T02:48:26;20.40;99.90
837;DHT22;400;53.550;9.932;2022-08-19T02:50:53;20.20;99.90
837;DHT22;400;53.550;9.932;2022-08-19T02:53:23;20.20;99.90
837;DHT22;400;53.550;9.932;2022-08-19T02:55:50;20.20;99.90
837;DHT22;400;53.550;9.932;2022-08-19T02:58:19;20.20;99.90
837;DHT22;400;53.550;9.932;2022-08-19T03:00:48;20.20;99.90
837;DHT22;400;53.550;9.932;2022-08-19T03:03:18;20.10;99.90
837;DHT22;400;53.550;9.932;2022-08-19T03:05:45;20.10;99.90
837;DHT22;400;53.550;9.932;2022-08-19T03:08:13;20.30;99.90
837;DHT22;400;53.550;9.932;2022-08-19T03:10:41;20.30;99.90
837;DHT22;400;53.550;9.932;2022-08-19T03:13:11;20.20;99.90
837;DHT22;400;53.550;9.932;2022-08-19T03:15:43;20.10;99.90
837;DHT22;400;53.550;9.932;2022-08-19T03:18:11;20.20;99.90
837;DHT22;400;53.550;9.932;2022-08-19T03:20:44;20.10;99.90
837;DHT22;400;53.550;9.932;2022-08-19T03:23:11;20.10;99.90
837;DHT22;400;53.550;9.932;2022-08-19T03:25:40;20.00;99.90
837;DHT22;400;53.550;9.932;2022-08-19T03:28:08;20.00;99.90
837;DHT22;400;53.550;9.932;2022-08-19T03:30:35;20.10;99.90
837;DHT22;400;53.550;9.932;2022-08-19T03:33:02;20.00;99.90
837;DHT22;400;53.550;9.932;2022-08-19T03:35:29;19.90;99.90
837;DHT22;400;53.550;9.932;2022-08-19T03:37:58;19.80;99.90
837;DHT22;400;53.550;9.932;2022-08-19T03:40:25;19.70;99.90
837;DHT22;400;53.550;9.932;2022-08-19T03:42:52;19.70;99.90
837;DHT22;400;53.550;9.932;2022-08-19T03:45:19;19.80;99.90
837;DHT22;400;53.550;9.932;2022-08-19T03:47:46;19.80;99.90
837;DHT22;400;53.550;9.932;2022-08-19T03:50:13;19.90;99.90
837;DHT22;400;53.550;9.932;2022-08-19T03:52:40;19.80;99.90
837;DHT22;400;53.550;9.932;2022-08-19T03:55:09;19.80;99.90
837;DHT22;400;53.550;9.932;2022-08-19T03:57:36;19.90;99.90
837;DHT22;400;53.550;9.932;2022-08-19T04:00:04;19.80;99.90
837;DHT22;400;53.550;9.932;2022-08-19T04:02:33;20.00;99.90
837;DHT22;400;53.550;9.932;2022-08-19T04:05:00;20.00;99.90
837;DHT22;400;53.550;9.932;2022-08-19T04:07:27;20.00;99.90
837;DHT22;400;53.550;9.932;2022-08-19T04:09:54;19.90;99.90
837;DHT22;400;53.550;9.932;2022-08-19T04:12:22;19.70;99.90
837;DHT22;400;53.550;9.932;2022-08-19T04:14:49;19.60;99.90
837;DHT22;400;53.550;9.932;2022-08-19T04:17:16;19.80;99.90
837;DHT22;400;53.550;9.932;2022-08-19T04:19:43;19.90;99.90
837;DHT22;400;53.550;9.932;2022-08-19T04:22:10;19.90;99.90
837;DHT22;400;53.550;9.932;2022-08-19T04:24:38;19.80;99.90
837;DHT22;400;53.550;9.932;2022-08-19T04:27:05;19.90;99.90
837;DHT22;400;53.550;9.932;2022-08-19T04:29:33;19.80;99.90
837;DHT22;400;53.550;9.932;2022-08-19T04:32:02;19.90;99.90
837;DHT22;400;53.550;9.932;2022-08-19T04:34:32;19.60;99.90
837;DHT22;400;53.550;9.932;2022-08-19T04:37:00;19.70;99.90
837;DHT22;400;53.550;9.932;2022-08-19T04:39:29;19.70;99.90
837;DHT22;400;53.550;9.932;2022-08-19T04:42:10;19.70;99.90
837;DHT22;400;53.550;9.932;2022-08-19T04:45:13;19.80;99.90
837;DHT22;400;53.550;9.932;2022-08-19T04:47:42;19.80;99.90
837;DHT22;400;53.550;9.932;2022-08-19T04:50:10;19.70;99.90
837;DHT22;400;53.550;9.932;2022-08-19T04:52:37;19.70;99.90
837;DHT22;400;53.550;9.932;2022-08-19T04:55:09;19.80;99.90
837;DHT22;400;53.550;9.932;2022-08-19T04:57:36;19.70;99.90
837;DHT22;400;53.550;9.932;2022-08-19T05:00:12;19.90;99.90
837;DHT22;400;53.550;9.932;2022-08-19T05:02:39;19.70;99.90
837;DHT22;400;53.550;9.932;2022-08-19T05:05:09;19.70;99.90
837;DHT22;400;53.550;9.932;2022-08-19T05:07:36;19.60;99.90
837;DHT22;400;53.550;9.932;2022-08-19T05:10:05;19.50;99.90
837;DHT22;400;53.550;9.932;2022-08-19T05:12:34;19.60;99.90
837;DHT22;400;53.550;9.932;2022-08-19T05:15:03;19.60;99.90
837;DHT22;400;53.550;9.932;2022-08-19T05:17:32;19.60;99.90
837;DHT22;400;53.550;9.932;2022-08-19T05:20:03;19.70;99.90
837;DHT22;400;53.550;9.932;2022-08-19T05:22:47;19.60;99.90
837;DHT22;400;53.550;9.932;2022-08-19T05:25:17;19.60;99.90
837;DHT22;400;53.550;9.932;2022-08-19T05:27:44;19.50;99.90
837;DHT22;400;53.550;9.932;2022-08-19T05:30:12;19.60;99.90
837;DHT22;400;53.550;9.932;2022-08-19T05:32:42;19.70;99.90
837;DHT22;400;53.550;9.932;2022-08-19T05:35:11;19.50;99.90
837;DHT22;400;53.550;9.932;2022-08-19T05:37:43;19.40;99.90
837;DHT22;400;53.550;9.932;2022-08-19T05:40:14;19.40;99.90
837;DHT22;400;53.550;9.932;2022-08-19T05:42:44;19.40;99.90
837;DHT22;400;53.550;9.932;2022-08-19T05:45:12;19.40;99.90
837;DHT22;400;53.550;9.932;2022-08-19T05:47:41;19.50;99.90
837;DHT22;400;53.550;9.932;2022-08-19T05:50:09;19.50;99.90
837;DHT22;400;53.550;9.932;2022-08-19T05:52:38;19.40;99.90
837;DHT22;400;53.550;9.932;2022-08-19T05:55:07;19.50;99.90
837;DHT22;400;53.550;9.932;2022-08-19T05:57:36;19.40;99.90
837;DHT22;400;53.550;9.932;2022-08-19T06:00:10;19.50;99.90
837;DHT22;400;53.550;9.932;2022-08-19T06:02:42;19.50;99.90
837;DHT22;400;53.550;9.932;2022-08-19T06:05:10;19.50;99.90
837;DHT22;400;53.550;9.932;2022-08-19T06:07:40;19.60;99.90
837;DHT22;400;53.550;9.932;2022-08-19T06:10:09;19.50;99.90
837;DHT22;400;53.550;9.932;2022-08-19T06:12:39;19.50;99.90
837;DHT22;400;53.550;9.932;2022-08-19T06:15:09;19.50;99.90
837;DHT22;400;53.550;9.932;2022-08-19T06:17:36;19.40;99.90
837;DHT22;400;53.550;9.932;2022-08-19T06:20:14;19.50;99.90
837;DHT22;400;53.550;9.932;2022-08-19T06:22:48;19.50;99.90
837;DHT22;400;53.550;9.932;2022-08-19T06:25:20;19.50;99.90
837;DHT22;400;53.550;9.932;2022-08-19T06:27:49;19.40;99.90
837;DHT22;400;53.550;9.932;2022-08-19T06:30:18;19.30;99.90
837;DHT22;400;53.550;9.932;2022-08-19T06:32:46;19.50;99.90
837;DHT22;400;53.550;9.932;2022-08-19T06:35:16;19.50;99.90
837;DHT22;400;53.550;9.932;2022-08-19T06:37:43;19.60;99.90
837;DHT22;400;53.550;9.932;2022-08-19T06:40:11;19.70;99.90
837;DHT22;400;53.550;9.932;2022-08-19T06:42:38;19.60;99.90
837;DHT22;400;53.550;9.932;2022-08-19T06:45:06;19.60;99.90
837;DHT22;400;53.550;9.932;2022-08-19T06:47:33;19.50;99.90
837;DHT22;400;53.550;9.932;2022-08-19T06:50:03;19.50;99.90
837;DHT22;400;53.550;9.932;2022-08-19T06:52:37;19.60;99.90
837;DHT22;400;53.550;9.932;2022-08-19T06:55:08;19.60;99.90
837;DHT22;400;53.550;9.932;2022-08-19T06:57:36;19.40;99.90
837;DHT22;400;53.550;9.932;2022-08-19T07:00:05;19.40;99.90
837;DHT22;400;53.550;9.932;2022-08-19T07:02:34;19.50;99.90
837;DHT22;400;53.550;9.932;2022-08-19T07:05:03;19.50;99.90
837;DHT22;400;53.550;9.932;2022-08-19T07:07:30;19.50;99.90
837;DHT22;400;53.550;9.932;2022-08-19T07:09:59;19.70;99.90
837;DHT22;400;53.550;9.932;2022-08-19T07:12:27;19.60;99.90
837;DHT22;400;53.550;9.932;2022-08-19T07:14:56;19.70;99.90
837;DHT22;400;53.550;9.932;2022-08-19T07:17:25;19.80;99.90
837;DHT22;400;53.550;9.932;2022-08-19T07:19:52;19.80;99.90
837;DHT22;400;53.550;9.932;2022-08-19T07:22:20;19.70;99.90
837;DHT22;400;53.550;9.932;2022-08-19T07:24:50;19.60;99.90
837;DHT22;400;53.550;9.932;2022-08-19T07:27:25;19.70;99.90
837;DHT22;400;53.550;9.932;2022-08-19T07:29:58;19.80;99.90
837;DHT22;400;53.550;9.932;2022-08-19T07:32:28;19.90;99.90
837;DHT22;400;53.550;9.932;2022-08-19T07:34:56;20.00;99.90
837;DHT22;400;53.550;9.932;2022-08-19T07:37:28;19.90;99.90
837;DHT22;400;53.550;9.932;2022-08-19T07:40:07;19.90;99.90
837;DHT22;400;53.550;9.932;2022-08-19T07:42:53;19.90;99.90
837;DHT22;400;53.550;9.932;2022-08-19T07:45:25;20.00;99.90
837;DHT22;400;53.550;9.932;2022-08-19T07:48:00;20.00;99.90
837;DHT22;400;53.550;9.932;2022-08-19T07:50:33;19.90;99.90
837;DHT22;400;53.550;9.932;2022-08-19T07:53:03;19.90;99.90
837;DHT22;400;53.550;9.932;2022-08-19T07:55:30;20.10;99.90
837;DHT22;400;53.550;9.932;2022-08-19T07:57:59;20.20;99.90
837;DHT22;400;53.550;9.932;2022-08-19T08:00:28;20.10;99.90
837;DHT22;400;53.550;9.932;2022-08-19T08:02:59;20.10;99.90
837;DHT22;400;53.550;9.932;2022-08-19T08:05:29;20.10;99.90
837;DHT22;400;53.550;9.932;2022-08-19T08:08:16;20.10;99.90
837;DHT22;400;53.550;9.932;2022-08-19T08:11:01;20.10;99.90
837;DHT22;400;53.550;9.932;2022-08-19T08:13:31;20.20;99.90
837;DHT22;400;53.550;9.932;2022-08-19T08:16:02;20.10;99.90
837;DHT22;400;53.550;9.932;2022-08-19T08:18:34;20.10;99.90
837;DHT22;400;53.550;9.932;2022-08-19T08:21:09;20.20;99.90
837;DHT22;400;53.550;9.932;2022-08-19T08:23:44;20.20;99.90
837;DHT22;400;53.550;9.932;2022-08-19T08:26:11;20.20;99.90
837;DHT22;400;53.550;9.932;2022-08-19T08:28:41;20.10;99.90
837;DHT22;400;53.550;9.932;2022-08-19T08:31:08;20.10;99.90
837;DHT22;400;53.550;9.932;2022-08-19T08:33:36;20.00;99.90
837;DHT22;400;53.550;9.932;2022-08-19T08:36:05;20.10;99.90
837;DHT22;400;53.550;9.932;2022-08-19T08:38:35;20.00;99.90
837;DHT22;400;53.550;9.932;2022-08-19T08:41:11;20.20;99.90
837;DHT22;400;53.550;9.932;2022-08-19T08:43:48;20.20;99.90
837;DHT22;400;53.550;9.932;2022-08-19T08:46:21;20.30;99.90
837;DHT22;400;53.550;9.932;2022-08-19T08:48:52;20.10;99.90
837;DHT22;400;53.550;9.932;2022-08-19T08:51:25;20.20;99.90
837;DHT22;400;53.550;9.932;2022-08-19T08:53:55;20.10;99.90
837;DHT22;400;53.550;9.932;2022-08-19T08:56:23;20.20;99.90
837;DHT22;400;53.550;9.932;2022-08-19T08:58:58;20.20;99.90
837;DHT22;400;53.550;9.932;2022-08-19T09:01:27;20.30;99.90
837;DHT22;400;53.550;9.932;2022-08-19T09:03:55;20.50;99.90
837;DHT22;400;53.550;9.932;2022-08-19T09:06:32;20.40;99.90
837;DHT22;400;53.550;9.932;2022-08-19T09:09:09;20.50;99.90
837;DHT22;400;53.550;9.932;2022-08-19T09:11:54;20.50;99.90
837;DHT22;400;53.550;9.932;2022-08-19T09:14:39;20.40;99.90
837;DHT22;400;53.550;9.932;2022-08-19T09:17:21;20.50;99.90
837;DHT22;400;53.550;9.932;2022-08-19T09:20:00;20.40;99.90
837;DHT22;400;53.550;9.932;2022-08-19T09:22:32;20.60;99.90
837;DHT22;400;53.550;9.932;2022-08-19T09:24:59;20.70;99.90
837;DHT22;400;53.550;9.932;2022-08-19T09:27:29;20.70;99.90
837;DHT22;400;53.550;9.932;2022-08-19T09:30:01;20.70;99.90
837;DHT22;400;53.550;9.932;2022-08-19T09:32:32;20.80;99.90
837;DHT22;400;53.550;9.932;2022-08-19T09:35:03;20.80;99.90
837;DHT22;400;53.550;9.932;2022-08-19T09:37:37;20.80;99.90
837;DHT22;400;53.550;9.932;2022-08-19T09:40:06;20.80;99.90
837;DHT22;400;53.550;9.932;2022-08-19T09:42:35;20.80;99.90
837;DHT22;400;53.550;9.932;2022-08-19T09:45:09;20.80;99.90
837;DHT22;400;53.550;9.932;2022-08-19T09:47:40;20.60;99.90
837;DHT22;400;53.550;9.932;2022-08-19T09:50:10;20.50;99.90
837;DHT22;400;53.550;9.932;2022-08-19T09:52:37;20.40;99.90
837;DHT22;400;53.550;9.932;2022-08-19T09:55:15;20.50;99.90
837;DHT22;400;53.550;9.932;2022-08-19T09:57:43;20.50;99.90
837;DHT22;400;53.550;9.932;2022-08-19T10:00:12;20.60;99.90
837;DHT22;400;53.550;9.932;2022-08-19T10:02:40;20.70;99.90
837;DHT22;400;53.550;9.932;2022-08-19T10:05:08;20.80;99.90
837;DHT22;400;53.550;9.932;2022-08-19T10:07:52;20.80;99.90
837;DHT22;400;53.550;9.932;2022-08-19T10:10:20;20.90;99.90
837;DHT22;400;53.550;9.932;2022-08-19T10:12:50;20.90;99.90
837;DHT22;400;53.550;9.932;2022-08-19T10:15:23;20.70;99.90
837;DHT22;400;53.550;9.932;2022-08-19T10:17:52;20.80;99.90
837;DHT22;400;53.550;9.932;2022-08-19T10:20:21;20.80;99.90
837;DHT22;400;53.550;9.932;2022-08-19T10:22:52;20.70;99.90
837;DHT22;400;53.550;9.932;2022-08-19T10:25:23;20.60;99.90
837;DHT22;400;53.550;9.932;2022-08-19T10:27:57;20.70;99.90
837;DHT22;400;53.550;9.932;2022-08-19T10:30:32;20.80;99.90
837;DHT22;400;53.550;9.932;2022-08-19T10:33:04;20.90;99.90
837;DHT22;400;53.550;9.932;2022-08-19T10:38:46;20.80;99.90
837;DHT22;400;53.550;9.932;2022-08-19T10:41:16;20.90;99.90
837;DHT22;400;53.550;9.932;2022-08-19T10:43:44;20.80;99.90
837;DHT22;400;53.550;9.932;2022-08-19T10:46:15;20.90;99.90
837;DHT22;400;53.550;9.932;2022-08-19T10:48:46;20.80;99.90
837;DHT22;400;53.550;9.932;2022-08-19T10:51:17;20.90;99.90
837;DHT22;400;53.550;9.932;2022-08-19T10:54:04;20.90;99.90
837;DHT22;400;53.550;9.932;2022-08-19T10:56:36;21.00;99.90
837;DHT22;400;53.550;9.932;2022-08-19T10:59:23;21.00;99.90
837;DHT22;400;53.550;9.932;2022-08-19T11:01:58;21.00;99.90
837;DHT22;400;53.550;9.932;2022-08-19T11:04:27;21.20;99.90
837;DHT22;400;53.550;9.932;2022-08-19T11:07:04;21.30;99.90
837;DHT22;400;53.550;9.932;2022-08-19T11:09:40;21.40;99.90
837;DHT22;400;53.550;9.932;2022-08-19T11:12:21;21.40;99.90
837;DHT22;400;53.550;9.932;2022-08-19T11:14:51;21.30;99.90
837;DHT22;400;53.550;9.932;2022-08-19T11:17:24;21.40;99.90
837;DHT22;400;53.550;9.932;2022-08-19T11:19:56;21.30;99.90
837;DHT22;400;53.550;9.932;2022-08-19T11:22:30;21.60;99.90
837;DHT22;400;53.550;9.932;2022-08-19T11:25:00;21.70;99.90
837;DHT22;400;53.550;9.932;2022-08-19T11:27:34;21.90;99.90
837;DHT22;400;53.550;9.932;2022-08-19T11:30:17;22.00;99.90
837;DHT22;400;53.550;9.932;2022-08-19T11:32:54;22.10;99.90
837;DHT22;400;53.550;9.932;2022-08-19T11:35:23;21.90;99.90
837;DHT22;400;53.550;9.932;2022-08-19T11:37:56;21.90;99.90
837;DHT22;400;53.550;9.932;2022-08-19T11:40:29;21.90;99.90
837;DHT22;400;53.550;9.932;2022-08-19T11:43:00;22.20;99.90
837;DHT22;400;53.550;9.932;2022-08-19T11:45:31;22.20;99.90
837;DHT22;400;53.550;9.932;2022-08-19T11:48:00;22.30;99.90
837;DHT22;400;53.550;9.932;2022-08-19T11:50:28;22.40;99.90
837;DHT22;400;53.550;9.932;2022-08-19T11:52:57;22.20;99.90
837;DHT22;400;53.550;9.932;2022-08-19T11:55:28;22.10;99.90
837;DHT22;400;53.550;9.932;2022-08-19T11:58:00;22.10;99.90
837;DHT22;400;53.550;9.932;2022-08-19T12:00:29;22.00;99.90
837;DHT22;400;53.550;9.932;2022-08-19T12:03:04;22.00;99.90
837;DHT22;400;53.550;9.932;2022-08-19T12:05:40;21.90;99.90
837;DHT22;400;53.550;9.932;2022-08-19T12:08:13;21.80;99.90
837;DHT22;400;53.550;9.932;2022-08-19T12:10:43;21.90;99.90
837;DHT22;400;53.550;9.932;2022-08-19T12:13:12;21.90;99.90
837;DHT22;400;53.550;9.932;2022-08-19T12:15:46;22.00;99.90
837;DHT22;400;53.550;9.932;2022-08-19T12:18:15;22.20;99.90
837;DHT22;400;53.550;9.932;2022-08-19T12:20:45;22.20;99.90
837;DHT22;400;53.550;9.932;2022-08-19T12:23:18;22.30;99.90
837;DHT22;400;53.550;9.932;2022-08-19T12:25:50;22.50;99.90
837;DHT22;400;53.550;9.932;2022-08-19T12:28:19;22.70;99.90
837;DHT22;400;53.550;9.932;2022-08-19T12:30:50;22.80;99.90
837;DHT22;400;53.550;9.932;2022-08-19T12:33:25;22.90;99.90
837;DHT22;400;53.550;9.932;2022-08-19T12:36:02;23.10;99.90
837;DHT22;400;53.550;9.932;2022-08-19T12:38:42;23.20;99.90
837;DHT22;400;53.550;9.932;2022-08-19T12:41:14;23.40;99.90
837;DHT22;400;53.550;9.932;2022-08-19T12:43:45;23.50;99.90
837;DHT22;400;53.550;9.932;2022-08-19T12:46:17;23.50;99.90
837;DHT22;400;53.550;9.932;2022-08-19T12:48:46;23.70;99.90
837;DHT22;400;53.550;9.932;2022-08-19T12:51:17;23.40;99.90
837;DHT22;400;53.550;9.932;2022-08-19T12:53:47;23.60;99.90
837;DHT22;400;53.550;9.932;2022-08-19T12:56:17;23.70;99.90
837;DHT22;400;53.550;9.932;2022-08-19T12:58:48;23.80;99.90
837;DHT22;400;53.550;9.932;2022-08-19T13:01:19;23.70;99.90
837;DHT22;400;53.550;9.932;2022-08-19T13:03:51;23.80;99.90
837;DHT22;400;53.550;9.932;2022-08-19T13:06:21;23.90;99.90
837;DHT22;400;53.550;9.932;2022-08-19T13:08:48;23.70;99.90
837;DHT22;400;53.550;9.932;2022-08-19T13:11:19;23.40;99.90
837;DHT22;400;53.550;9.932;2022-08-19T13:13:51;23.50;99.90
837;DHT22;400;53.550;9.932;2022-08-19T13:16:25;23.40;99.90
837;DHT22;400;53.550;9.932;2022-08-19T13:18:55;23.50;99.90
837;DHT22;400;53.550;9.932;2022-08-19T13:21:27;23.70;99.90
837;DHT22;400;53.550;9.932;2022-08-19T13:24:00;23.70;99.90
837;DHT22;400;53.550;9.932;2022-08-19T13:26:30;23.70;99.90
837;DHT22;400;53.550;9.932;2022-08-19T13:28:57;23.80;99.90
837;DHT22;400;53.550;9.932;2022-08-19T13:31:41;23.70;99.90
837;DHT22;400;53.550;9.932;2022-08-19T13:34:33;23.60;99.90
837;DHT22;400;53.550;9.932;2022-08-19T13:37:05;23.60;99.90
837;DHT22;400;53.550;9.932;2022-08-19T13:39:35;23.70;99.90
837;DHT22;400;53.550;9.932;2022-08-19T13:42:06;23.80;99.90
837;DHT22;400;53.550;9.932;2022-08-19T13:44:37;23.80;99.90
837;DHT22;400;53.550;9.932;2022-08-19T13:47:07;23.80;99.90
837;DHT22;400;53.550;9.932;2022-08-19T13:49:45;23.70;99.90
837;DHT22;400;53.550;9.932;2022-08-19T13:52:17;23.80;99.90
837;DHT22;400;53.550;9.932;2022-08-19T13:54:45;23.80;99.90
837;DHT22;400;53.550;9.932;2022-08-19T13:57:13;23.70;99.90
837;DHT22;400;53.550;9.932;2022-08-19T13:59:46;23.60;99.90
837;DHT22;400;53.550;9.932;2022-08-19T14:02:12;23.70;99.90
837;DHT22;400;53.550;9.932;2022-08-19T14:04:44;23.60;99.90
837;DHT22;400;53.550;9.932;2022-08-19T14:07:15;23.70;99.90
837;DHT22;400;53.550;9.932;2022-08-19T14:09:46;23.80;99.90
837;DHT22;400;53.550;9.932;2022-08-19T14:12:16;23.90;99.90
837;DHT22;400;53.550;9.932;2022-08-19T14:14:44;23.90;99.90
837;DHT22;400;53.550;9.932;2022-08-19T14:17:13;24.00;99.90
837;DHT22;400;53.550;9.932;2022-08-19T14:19:48;24.00;99.90
837;DHT22;400;53.550;9.932;2022-08-19T14:22:17;23.80;99.90
837;DHT22;400;53.550;9.932;2022-08-19T14:24:44;23.90;99.90
837;DHT22;400;53.550;9.932;2022-08-19T14:27:13;24.00;99.90
837;DHT22;400;53.550;9.932;2022-08-19T14:29:40;24.00;99.90
837;DHT22;400;53.550;9.932;2022-08-19T14:32:09;23.90;99.90
837;DHT22;400;53.550;9.932;2022-08-19T14:34:38;24.20;99.90
837;DHT22;400;53.550;9.932;2022-08-19T14:37:06;24.30;99.90
837;DHT22;400;53.550;9.932;2022-08-19T14:39:35;24.50;99.90
837;DHT22;400;53.550;9.932;2022-08-19T14:42:06;24.50;99.90
837;DHT22;400;53.550;9.932;2022-08-19T14:44:33;24.40;99.90
837;DHT22;400;53.550;9.932;2022-08-19T14:47:01;24.30;99.90
837;DHT22;400;53.550;9.932;2022-08-19T14:49:29;24.10;99.90
837;DHT22;400;53.550;9.932;2022-08-19T14:51:58;23.90;99.90
837;DHT22;400;53.550;9.932;2022-08-19T14:54:30;24.00;99.90
837;DHT22;400;53.550;9.932;2022-08-19T14:56:57;24.00;99.90
837;DHT22;400;53.550;9.932;2022-08-19T14:59:24;24.00;99.90
837;DHT22;400;53.550;9.932;2022-08-19T15:01:52;24.10;99.90
837;DHT22;400;53.550;9.932;2022-08-19T15:04:20;24.00;99.90
837;DHT22;400;53.550;9.932;2022-08-19T15:06:50;24.00;99.90
837;DHT22;400;53.550;9.932;2022-08-19T15:09:20;23.80;99.90
837;DHT22;400;53.550;9.932;2022-08-19T15:11:52;23.90;99.90
837;DHT22;400;53.550;9.932;2022-08-19T15:14:22;23.90;99.90
837;DHT22;400;53.550;9.932;2022-08-19T15:16:52;24.00;99.90
837;DHT22;400;53.550;9.932;2022-08-19T15:19:23;24.10;99.90
837;DHT22;400;53.550;9.932;2022-08-19T15:21:54;24.30;99.90
837;DHT22;400;53.550;9.932;2022-08-19T15:24:23;24.50;99.90
837;DHT22;400;53.550;9.932;2022-08-19T15:26:52;24.50;99.90
837;DHT22;400;53.550;9.932;2022-08-19T15:29:21;24.60;99.90
837;DHT22;400;53.550;9.932;2022-08-19T15:31:50;24.70;99.90
837;DHT22;400;53.550;9.932;2022-08-19T15:34:21;24.80;99.90
837;DHT22;400;53.550;9.932;2022-08-19T15:36:53;25.00;99.90
837;DHT22;400;53.550;9.932;2022-08-19T15:39:24;24.90;99.90
837;DHT22;400;53.550;9.932;2022-08-19T15:41:56;24.90;99.90
837;DHT22;400;53.550;9.932;2022-08-19T15:44:27;24.80;99.90
837;DHT22;400;53.550;9.932;2022-08-19T15:46:58;24.70;99.90
837;DHT22;400;53.550;9.932;2022-08-19T15:49:27;24.80;99.90
837;DHT22;400;53.550;9.932;2022-08-19T15:51:53;24.80;99.90
837;DHT22;400;53.550;9.932;2022-08-19T15:54:25;24.90;99.90
837;DHT22;400;53.550;9.932;2022-08-19T15:56:51;25.00;99.90
837;DHT22;400;53.550;9.932;2022-08-19T15:59:37;25.00;99.90
837;DHT22;400;53.550;9.932;2022-08-19T16:02:26;24.90;99.90
837;DHT22;400;53.550;9.932;2022-08-19T16:05:18;24.80;99.90
837;DHT22;400;53.550;9.932;2022-08-19T16:08:03;24.80;99.90
837;DHT22;400;53.550;9.932;2022-08-19T16:10:31;24.70;99.90
837;DHT22;400;53.550;9.932;2022-08-19T16:12:59;24.70;99.90
837;DHT22;400;53.550;9.932;2022-08-19T16:15:32;24.80;99.90
837;DHT22;400;53.550;9.932;2022-08-19T16:18:06;25.00;99.90
837;DHT22;400;53.550;9.932;2022-08-19T16:20:35;25.00;99.90
837;DHT22;400;53.550;9.932;2022-08-19T16:23:06;24.90;99.90
837;DHT22;400;53.550;9.932;2022-08-19T16:25:35;24.90;99.90
837;DHT22;400;53.550;9.932;2022-08-19T16:28:04;24.80;99.90
837;DHT22;400;53.550;9.932;2022-08-19T16:30:35;24.60;99.90
837;DHT22;400;53.550;9.932;2022-08-19T16:33:04;24.80;99.90
837;DHT22;400;53.550;9.932;2022-08-19T16:35:31;25.10;99.90
837;DHT22;400;53.550;9.932;2022-08-19T16:37:59;25.80;99.90
837;DHT22;400;53.550;9.932;2022-08-19T16:40:27;26.40;99.90
837;DHT22;400;53.550;9.932;2022-08-19T16:42:54;27.10;99.90
837;DHT22;400;53.550;9.932;2022-08-19T16:45:21;27.40;99.90
837;DHT22;400;53.550;9.932;2022-08-19T16:47:51;27.90;99.90
837;DHT22;400;53.550;9.932;2022-08-19T16:50:18;28.10;99.90
837;DHT22;400;53.550;9.932;2022-08-19T16:52:46;28.80;99.90
837;DHT22;400;53.550;9.932;2022-08-19T16:55:14;29.50;99.90
837;DHT22;400;53.550;9.932;2022-08-19T16:57:43;29.10;99.90
837;DHT22;400;53.550;9.932;2022-08-19T17:00:11;28.30;99.90